Time;durP1;ratioP1;P1;durP2;ratioP2;P2;SDS_P1;SDS_P2;PMS_P1;PMS_P2;Temp;Humidity;BMP_temperature;BMP_pressure;BME280_temperature;BME280_humidity;BME280_pressure;Samples;Min_cycle;Max_cycle;Signal;HPM_P1;HPM_P2
2023/08/06 00:00:22;;;;;;;5.93;3.90;;;14.40;99.90;;;;;;5072063;28;20473;-80
2023/08/06 00:02:49;;;;;;;5.50;3.75;;;14.40;99.90;;;;;;5072113;28;20512;-81
2023/08/06 00:05:20;;;;;;;4.63;3.85;;;14.30;99.90;;;;;;5072491;28;20389;-81
2023/08/06 00:07:49;;;;;;;5.93;3.75;;;14.40;99.90;;;;;;5073469;28;20076;-82
2023/08/06 00:10:16;;;;;;;5.00;3.58;;;14.30;99.90;;;;;;5074197;28;20062;-80
2023/08/06 00:12:42;;;;;;;4.82;3.45;;;14.30;99.90;;;;;;5071967;28;20493;-79
2023/08/06 00:15:08;;;;;;;4.95;3.40;;;14.30;99.90;;;;;;5055618;28;20074;-82
2023/08/06 00:17:34;;;;;;;7.03;3.63;;;14.30;99.90;;;;;;5072910;28;20044;-81
2023/08/06 00:20:04;;;;;;;5.80;3.40;;;14.30;99.90;;;;;;5056081;28;20051;-82
2023/08/06 00:22:34;;;;;;;6.05;3.80;;;14.30;99.90;;;;;;5073155;28;20495;-81
2023/08/06 00:25:00;;;;;;;5.20;3.70;;;14.30;99.90;;;;;;5072277;28;20053;-81
2023/08/06 00:27:26;;;;;;;5.15;3.60;;;14.30;99.90;;;;;;5072614;28;20477;-82
2023/08/06 00:29:52;;;;;;;5.80;3.67;;;14.20;99.90;;;;;;5072062;28;20077;-81
2023/08/06 00:32:18;;;;;;;4.90;3.50;;;14.30;99.90;;;;;;5072448;28;20484;-82
2023/08/06 00:34:43;;;;;;;4.97;3.95;;;14.20;99.90;;;;;;5055695;28;20126;-82
2023/08/06 00:37:09;;;;;;;5.65;3.78;;;14.20;99.90;;;;;;5071770;28;20401;-81
2023/08/06 00:39:35;;;;;;;4.85;3.65;;;14.30;99.90;;;;;;5072415;28;20052;-81
2023/08/06 00:42:01;;;;;;;4.82;3.78;;;14.20;99.90;;;;;;5055434;28;20048;-81
2023/08/06 00:44:27;;;;;;;8.00;4.07;;;14.30;99.90;;;;;;5055978;28;20052;-81
2023/08/06 00:46:52;;;;;;;6.18;4.00;;;14.20;99.90;;;;;;5055919;28;20041;-79
2023/08/06 00:49:18;;;;;;;5.63;3.78;;;14.20;99.90;;;;;;5071827;28;20238;-81
2023/08/06 00:51:44;;;;;;;5.43;3.55;;;14.20;99.90;;;;;;5072269;28;20389;-81
2023/08/06 00:54:10;;;;;;;6.10;3.92;;;14.30;99.90;;;;;;5072089;28;20123;-82
2023/08/06 00:56:37;;;;;;;5.25;3.65;;;14.30;99.90;;;;;;5072285;28;20052;-81
2023/08/06 00:59:06;;;;;;;4.75;3.58;;;14.30;99.90;;;;;;5054752;28;20094;-81
2023/08/06 01:01:32;;;;;;;6.05;3.80;;;14.20;99.90;;;;;;5069165;28;20040;-81
2023/08/06 01:03:58;;;;;;;6.63;3.83;;;14.20;99.90;;;;;;5055248;28;20082;-81
2023/08/06 01:06:49;;;;;;;5.30;4.20;;;14.30;99.90;;;;;;5055724;28;20079;-81
2023/08/06 01:09:39;;;;;;;5.63;4.00;;;14.30;99.90;;;;;;5080165;28;20045;-81
2023/08/06 01:12:21;;;;;;;5.28;3.75;;;14.30;99.90;;;;;;5061043;28;20476;-81
2023/08/06 01:15:00;;;;;;;6.15;4.10;;;14.30;99.90;;;;;;5064288;28;20033;-82
2023/08/06 01:17:27;;;;;;;4.75;3.95;;;14.30;99.90;;;;;;5072945;28;20048;-82
2023/08/06 01:19:53;;;;;;;5.38;3.97;;;14.30;99.90;;;;;;5071861;28;20040;-79
2023/08/06 01:22:19;;;;;;;5.93;4.22;;;14.30;99.90;;;;;;5071917;28;20055;-80
2023/08/06 01:24:49;;;;;;;5.72;4.10;;;14.30;99.90;;;;;;5071439;28;20048;-80
2023/08/06 01:27:24;;;;;;;5.80;4.57;;;14.30;99.90;;;;;;5071568;28;20045;-80
2023/08/06 01:30:06;;;;;;;6.28;4.25;;;14.30;99.90;;;;;;5071639;28;20550;-80
2023/08/06 01:32:35;;;;;;;6.72;4.45;;;14.30;99.90;;;;;;5071381;28;20055;-80
2023/08/06 01:35:03;;;;;;;6.10;4.68;;;14.30;99.90;;;;;;5071633;28;20375;-80
2023/08/06 01:37:30;;;;;;;6.50;4.97;;;14.30;99.90;;;;;;5071016;28;20044;-80
2023/08/06 01:39:55;;;;;;;6.72;4.63;;;14.30;99.90;;;;;;5071630;28;20048;-79
2023/08/06 01:42:21;;;;;;;6.65;4.40;;;14.30;99.90;;;;;;5071351;28;20040;-80
2023/08/06 01:44:47;;;;;;;6.80;4.43;;;14.30;99.90;;;;;;5055050;28;20055;-80
2023/08/06 01:47:12;;;;;;;7.72;5.13;;;14.30;99.90;;;;;;5055147;28;20040;-81
2023/08/06 01:49:38;;;;;;;9.07;5.40;;;14.30;99.90;;;;;;5071544;28;20047;-81
2023/08/06 01:52:04;;;;;;;7.88;5.30;;;14.30;99.90;;;;;;5071651;28;20037;-82
2023/08/06 01:54:30;;;;;;;6.22;4.65;;;14.30;99.90;;;;;;5071658;28;20135;-81
2023/08/06 01:56:58;;;;;;;7.13;5.18;;;14.30;99.90;;;;;;5071281;28;20054;-80
2023/08/06 01:59:24;;;;;;;7.63;5.80;;;14.30;99.90;;;;;;5054788;28;20041;-81
2023/08/06 02:01:50;;;;;;;6.53;4.93;;;14.30;99.90;;;;;;5071732;28;20044;-80
2023/08/06 02:04:15;;;;;;;7.25;5.07;;;14.30;99.90;;;;;;5073235;28;20056;-81
2023/08/06 02:06:41;;;;;;;7.85;5.20;;;14.30;99.90;;;;;;5058672;28;20106;-81
2023/08/06 02:09:06;;;;;;;8.60;5.20;;;14.30;99.90;;;;;;5075432;28;20032;-81
2023/08/06 02:11:32;;;;;;;7.30;5.07;;;14.30;99.90;;;;;;5058864;28;20040;-81
2023/08/06 02:13:58;;;;;;;6.28;4.95;;;14.20;99.90;;;;;;5075658;28;20036;-81
2023/08/06 02:16:23;;;;;;;5.70;4.75;;;14.20;99.90;;;;;;5058599;28;20464;-79
2023/08/06 02:18:49;;;;;;;6.43;4.50;;;14.20;99.90;;;;;;5075135;28;20438;-80
2023/08/06 02:21:15;;;;;;;7.55;4.85;;;14.20;99.90;;;;;;5075227;28;20156;-79
2023/08/06 02:23:40;;;;;;;7.82;4.90;;;14.20;99.90;;;;;;5075581;28;20052;-79
2023/08/06 02:26:06;;;;;;;7.30;4.65;;;14.20;99.90;;;;;;5058525;28;20047;-80
2023/08/06 02:28:32;;;;;;;7.97;5.07;;;14.20;99.90;;;;;;5075260;28;20090;-79
2023/08/06 02:30:58;;;;;;;6.18;4.97;;;14.20;99.90;;;;;;5074879;28;20040;-79
2023/08/06 02:33:24;;;;;;;6.95;5.10;;;14.20;99.90;;;;;;5074667;28;20511;-79
2023/08/06 02:35:50;;;;;;;6.97;4.60;;;14.20;99.90;;;;;;5058527;28;20032;-80
2023/08/06 02:38:15;;;;;;;5.85;4.90;;;14.20;99.90;;;;;;5058189;28;20548;-79
2023/08/06 02:40:45;;;;;;;6.95;4.97;;;14.20;99.90;;;;;;5075041;28;20060;-80
2023/08/06 02:43:11;;;;;;;10.10;5.00;;;14.20;99.90;;;;;;5075037;28;20169;-80
2023/08/06 02:45:37;;;;;;;7.47;5.00;;;14.20;99.90;;;;;;5074719;28;20048;-80
2023/08/06 02:48:03;;;;;;;8.38;5.18;;;14.20;99.90;;;;;;5074649;28;20048;-81
2023/08/06 02:50:29;;;;;;;9.10;5.97;;;14.20;99.90;;;;;;5075056;28;20065;-80
2023/08/06 02:52:54;;;;;;;9.07;5.82;;;14.10;99.90;;;;;;5074380;28;20354;-80
2023/08/06 02:55:20;;;;;;;7.32;5.10;;;14.10;99.90;;;;;;5074633;28;20047;-80
2023/08/06 02:57:46;;;;;;;7.32;5.10;;;14.10;99.90;;;;;;5058197;28;20050;-80
2023/08/06 03:00:11;;;;;;;6.88;5.10;;;14.10;99.90;;;;;;5074742;28;20060;-80
2023/08/06 03:02:37;;;;;;;6.38;5.07;;;14.10;99.90;;;;;;5074392;28;20129;-80
2023/08/06 03:05:03;;;;;;;6.40;5.03;;;14.10;99.90;;;;;;5057189;28;20055;-80
2023/08/06 03:07:29;;;;;;;7.95;4.90;;;14.10;99.90;;;;;;5074309;28;20048;-81
2023/08/06 03:09:55;;;;;;;7.82;5.05;;;14.10;99.90;;;;;;5057987;28;20047;-80
2023/08/06 03:12:20;;;;;;;6.50;4.70;;;14.00;99.90;;;;;;5074518;28;20091;-80
2023/08/06 03:14:46;;;;;;;7.63;5.40;;;14.00;99.90;;;;;;5073009;28;20036;-80
2023/08/06 03:17:12;;;;;;;6.55;4.88;;;14.00;99.90;;;;;;5073792;28;20452;-80
2023/08/06 03:19:37;;;;;;;8.63;5.32;;;13.90;99.90;;;;;;5074964;28;20094;-80
2023/08/06 03:22:03;;;;;;;6.32;5.07;;;13.90;99.90;;;;;;5074388;28;20412;-80
2023/08/06 03:24:29;;;;;;;7.63;4.95;;;13.80;99.90;;;;;;5074129;28;20051;-81
2023/08/06 03:26:54;;;;;;;8.93;5.47;;;13.80;99.90;;;;;;5053894;28;20045;-81
2023/08/06 03:29:21;;;;;;;6.75;4.80;;;13.80;99.90;;;;;;5055258;28;20136;-81
2023/08/06 03:31:47;;;;;;;6.40;4.88;;;13.70;99.90;;;;;;5072545;28;20046;-81
2023/08/06 03:34:12;;;;;;;6.50;4.65;;;13.70;99.90;;;;;;5074020;28;20032;-81
2023/08/06 03:36:38;;;;;;;6.68;4.60;;;13.60;99.90;;;;;;5073846;28;20059;-81
2023/08/06 03:39:04;;;;;;;6.13;4.78;;;13.60;99.90;;;;;;5073296;28;20457;-82
2023/08/06 03:41:30;;;;;;;6.85;4.93;;;13.50;99.90;;;;;;5057086;28;20052;-81
2023/08/06 03:43:56;;;;;;;8.25;4.95;;;13.50;99.90;;;;;;5074983;28;20037;-81
2023/08/06 03:46:21;;;;;;;6.18;4.53;;;13.40;99.90;;;;;;5073859;28;20044;-81
2023/08/06 03:48:47;;;;;;;5.72;4.45;;;13.40;99.90;;;;;;5073160;28;20045;-82
2023/08/06 03:51:13;;;;;;;5.75;4.40;;;13.30;99.90;;;;;;5057340;28;20033;-81
2023/08/06 03:53:44;;;;;;;6.20;4.68;;;13.30;99.90;;;;;;5073410;28;20430;-81
2023/08/06 03:56:10;;;;;;;7.18;4.65;;;13.30;99.90;;;;;;5057062;28;20119;-81
2023/08/06 03:58:35;;;;;;;7.72;4.93;;;13.30;99.90;;;;;;5074841;28;20036;-81
2023/08/06 04:01:02;;;;;;;7.47;6.18;;;13.40;99.90;;;;;;5072705;28;20128;-82
2023/08/06 04:03:28;;;;;;;6.80;5.18;;;13.40;99.90;;;;;;5073213;28;20036;-81
2023/08/06 04:05:54;;;;;;;6.18;4.85;;;13.40;99.90;;;;;;5073167;28;20382;-81
2023/08/06 04:08:20;;;;;;;6.82;5.47;;;13.40;99.90;;;;;;5055992;28;20055;-80
2023/08/06 04:10:49;;;;;;;6.45;5.10;;;13.50;99.90;;;;;;5055612;28;20436;-80
2023/08/06 04:13:15;;;;;;;6.93;5.18;;;13.50;99.90;;;;;;5072153;28;20039;-80
2023/08/06 04:15:40;;;;;;;7.95;5.18;;;13.50;99.90;;;;;;5056461;28;20044;-81
2023/08/06 04:18:06;;;;;;;5.80;4.68;;;13.50;99.90;;;;;;5056114;28;20036;-81
2023/08/06 04:20:32;;;;;;;7.28;4.93;;;13.40;99.90;;;;;;5031122;28;20071;-81
2023/08/06 04:22:57;;;;;;;6.28;5.03;;;13.40;99.90;;;;;;5069948;28;20048;-81
2023/08/06 04:25:23;;;;;;;6.78;4.28;;;13.30;99.90;;;;;;5036320;28;20048;-81
2023/08/06 04:27:49;;;;;;;6.43;5.43;;;13.40;99.90;;;;;;5068988;28;20357;-81
2023/08/06 04:30:15;;;;;;;7.43;5.20;;;13.40;99.90;;;;;;5072567;28;20032;-81
2023/08/06 04:32:41;;;;;;;7.30;4.75;;;13.40;99.90;;;;;;5072493;28;20055;-81
2023/08/06 04:35:07;;;;;;;6.20;4.75;;;13.40;99.90;;;;;;5073449;28;20045;-81
2023/08/06 04:37:33;;;;;;;8.13;5.50;;;13.40;99.90;;;;;;5072101;28;20095;-80
2023/08/06 04:39:58;;;;;;;6.65;5.00;;;13.40;99.90;;;;;;5056144;28;20059;-81
2023/08/06 04:42:24;;;;;;;7.47;5.22;;;13.50;99.90;;;;;;5055302;28;20056;-81
2023/08/06 04:44:50;;;;;;;7.28;5.22;;;13.50;99.90;;;;;;5056141;28;20044;-82
2023/08/06 04:47:16;;;;;;;9.60;5.90;;;13.50;99.90;;;;;;5073228;28;20048;-81
2023/08/06 04:49:41;;;;;;;9.27;5.28;;;13.50;99.90;;;;;;5055700;28;20369;-81
2023/08/06 04:52:07;;;;;;;7.85;5.22;;;13.60;99.90;;;;;;5056037;28;20048;-81
2023/08/06 04:54:34;;;;;;;7.82;5.50;;;13.70;99.90;;;;;;5055629;28;20079;-80
2023/08/06 04:56:59;;;;;;;8.40;5.55;;;13.70;99.90;;;;;;5072261;28;20043;-80
2023/08/06 04:59:25;;;;;;;7.15;5.32;;;13.70;99.90;;;;;;5071853;28;20036;-81
2023/08/06 05:01:51;;;;;;;7.43;5.70;;;13.80;99.90;;;;;;5055371;28;20037;-81
2023/08/06 05:04:16;;;;;;;10.20;6.47;;;13.90;99.90;;;;;;5071939;28;20040;-80
2023/08/06 05:06:42;;;;;;;7.85;5.82;;;13.90;99.90;;;;;;5055147;28;20101;-81
2023/08/06 05:09:08;;;;;;;7.40;5.75;;;13.90;99.90;;;;;;5055269;28;20048;-81
2023/08/06 05:11:33;;;;;;;11.00;6.85;;;14.00;99.90;;;;;;5072200;28;20063;-80
2023/08/06 05:13:59;;;;;;;7.35;5.72;;;14.00;99.90;;;;;;5055386;28;20039;-80
2023/08/06 05:16:25;;;;;;;8.27;5.88;;;14.10;99.90;;;;;;5055494;28;20427;-80
2023/08/06 05:18:50;;;;;;;9.10;6.60;;;14.10;99.90;;;;;;5071760;28;20040;-80
2023/08/06 05:21:16;;;;;;;8.13;6.43;;;14.20;99.90;;;;;;5071759;28;20039;-80
2023/08/06 05:23:42;;;;;;;8.75;6.22;;;14.20;99.90;;;;;;5073430;28;20158;-80
2023/08/06 05:26:08;;;;;;;7.18;5.63;;;14.20;99.90;;;;;;5055457;28;20040;-79
2023/08/06 05:28:34;;;;;;;7.85;6.18;;;14.20;99.90;;;;;;5055563;28;20479;-80
2023/08/06 05:31:06;;;;;;;9.57;6.15;;;14.30;99.90;;;;;;5034684;28;20462;-80
2023/08/06 05:33:31;;;;;;;8.68;6.38;;;14.30;99.90;;;;;;5068199;28;20095;-79
2023/08/06 05:35:57;;;;;;;7.60;6.18;;;14.30;99.90;;;;;;5071714;28;20072;-81
2023/08/06 05:38:23;;;;;;;8.82;6.45;;;14.30;99.90;;;;;;5072472;28;20424;-81
2023/08/06 05:40:49;;;;;;;10.50;6.43;;;14.30;99.90;;;;;;5071477;28;20056;-80
2023/08/06 05:43:14;;;;;;;9.98;6.85;;;14.40;99.90;;;;;;5071551;28;20086;-80
2023/08/06 05:45:45;;;;;;;8.40;6.50;;;14.40;99.90;;;;;;5055095;28;20074;-80
2023/08/06 05:48:11;;;;;;;8.40;5.85;;;14.40;99.90;;;;;;5071606;28;20047;-80
2023/08/06 05:50:36;;;;;;;10.77;6.68;;;14.40;99.90;;;;;;5054807;28;20392;-81
2023/08/06 05:53:02;;;;;;;8.70;6.50;;;14.40;99.90;;;;;;5053437;28;20033;-81
2023/08/06 05:55:28;;;;;;;8.00;6.38;;;14.50;99.90;;;;;;5070409;28;20032;-80
2023/08/06 05:57:53;;;;;;;9.00;6.40;;;14.50;99.90;;;;;;5071631;28;20075;-81
2023/08/06 06:00:21;;;;;;;9.43;6.30;;;14.50;99.90;;;;;;5072461;28;20132;-80
2023/08/06 06:02:47;;;;;;;8.80;6.38;;;14.50;99.90;;;;;;5071131;28;20041;-80
2023/08/06 06:05:13;;;;;;;8.48;6.60;;;14.50;99.90;;;;;;5054644;28;20477;-81
2023/08/06 06:07:38;;;;;;;8.10;6.28;;;14.50;99.90;;;;;;5071113;28;20120;-80
2023/08/06 06:10:05;;;;;;;7.50;5.95;;;14.60;99.90;;;;;;5057344;28;20052;-80
2023/08/06 06:12:30;;;;;;;8.85;6.53;;;14.60;99.90;;;;;;5072083;28;20052;-79
2023/08/06 06:14:56;;;;;;;7.28;6.25;;;14.60;99.90;;;;;;5074444;28;20037;-79
2023/08/06 06:17:22;;;;;;;8.48;6.80;;;14.70;99.90;;;;;;5072266;28;20426;-80
2023/08/06 06:19:47;;;;;;;9.52;6.75;;;14.70;99.90;;;;;;5071091;28;20028;-79
2023/08/06 06:22:14;;;;;;;10.75;7.68;;;14.70;99.90;;;;;;5072435;28;20469;-80
2023/08/06 06:24:40;;;;;;;8.52;6.30;;;14.80;99.90;;;;;;5071257;28;20238;-79
2023/08/06 06:27:05;;;;;;;8.48;6.30;;;14.80;99.90;;;;;;5071064;28;20540;-79
2023/08/06 06:29:31;;;;;;;8.88;6.47;;;14.90;99.90;;;;;;5070274;28;20040;-80
2023/08/06 06:31:57;;;;;;;9.77;6.28;;;14.90;99.90;;;;;;5071193;28;20036;-80
2023/08/06 06:34:22;;;;;;;8.77;5.95;;;15.00;99.90;;;;;;5054378;28;20056;-80
2023/08/06 06:36:48;;;;;;;9.73;6.43;;;15.00;99.90;;;;;;5054052;28;20242;-80
2023/08/06 06:39:15;;;;;;;8.18;6.15;;;15.00;99.90;;;;;;5070853;28;20048;-80
2023/08/06 06:41:41;;;;;;;9.18;6.18;;;15.00;99.90;;;;;;5054188;28;20130;-79
2023/08/06 06:44:07;;;;;;;7.85;5.85;;;15.10;99.90;;;;;;5071938;28;20445;-81
2023/08/06 06:46:32;;;;;;;7.85;6.18;;;15.10;99.90;;;;;;5071301;28;20128;-79
2023/08/06 06:48:58;;;;;;;6.78;5.60;;;15.10;99.90;;;;;;5053947;28;20041;-80
2023/08/06 06:51:24;;;;;;;9.90;6.47;;;15.20;99.90;;;;;;5040875;28;20056;-80
2023/08/06 06:53:49;;;;;;;8.38;5.82;;;15.20;99.90;;;;;;5074899;28;20041;-79
2023/08/06 06:56:15;;;;;;;7.57;6.10;;;15.30;99.90;;;;;;5057960;28;20044;-79
2023/08/06 06:58:40;;;;;;;8.00;5.82;;;15.30;99.90;;;;;;5074740;28;20056;-79
2023/08/06 07:01:07;;;;;;;9.13;6.30;;;15.40;99.90;;;;;;5073946;28;20033;-80
2023/08/06 07:03:33;;;;;;;7.70;5.72;;;15.50;99.90;;;;;;5073977;28;20044;-80
2023/08/06 07:05:59;;;;;;;8.15;5.90;;;15.70;99.90;;;;;;5074171;28;20041;-80
2023/08/06 07:08:25;;;;;;;7.10;5.70;;;15.80;99.90;;;;;;5049217;28;20052;-79
2023/08/06 07:10:59;;;;;;;9.75;6.53;;;15.80;99.90;;;;;;5072575;28;20135;-80
2023/08/06 07:13:24;;;;;;;6.80;5.28;;;15.80;99.90;;;;;;5073463;28;20346;-80
2023/08/06 07:15:50;;;;;;;7.05;5.72;;;15.80;99.90;;;;;;5071185;28;20098;-80
2023/08/06 07:18:15;;;;;;;7.30;5.38;;;15.80;99.90;;;;;;5073024;28;20365;-80
2023/08/06 07:20:41;;;;;;;7.90;5.70;;;15.80;99.90;;;;;;5055188;28;20125;-80
2023/08/06 07:23:07;;;;;;;6.35;5.53;;;15.80;99.90;;;;;;5074125;28;20044;-80
2023/08/06 07:25:32;;;;;;;7.63;5.72;;;15.90;99.90;;;;;;5056967;28;20053;-81
2023/08/06 07:27:58;;;;;;;7.00;5.30;;;15.90;99.90;;;;;;5091161;28;20120;-80
2023/08/06 07:30:24;;;;;;;7.13;5.03;;;15.90;99.90;;;;;;5047194;28;20486;-72
2023/08/06 07:32:50;;;;;;;7.15;5.32;;;16.00;99.90;;;;;;5066240;28;20393;-73
2023/08/06 07:35:15;;;;;;;7.00;5.43;;;16.10;99.90;;;;;;5069054;28;20036;-73
2023/08/06 07:37:41;;;;;;;6.65;5.38;;;16.10;99.90;;;;;;5061979;28;20485;-73
2023/08/06 07:40:07;;;;;;;6.55;5.18;;;16.20;99.90;;;;;;5072529;28;20051;-73
2023/08/06 07:42:33;;;;;;;6.30;5.13;;;16.30;99.90;;;;;;5068703;28;20056;-73
2023/08/06 07:44:59;;;;;;;6.40;5.65;;;16.40;99.90;;;;;;5068544;28;20036;-73
2023/08/06 07:47:25;;;;;;;7.30;5.30;;;16.50;99.90;;;;;;5062011;28;20052;-73
2023/08/06 07:49:51;;;;;;;6.93;5.20;;;16.60;99.90;;;;;;5067348;28;20040;-72
2023/08/06 07:52:16;;;;;;;6.35;5.15;;;16.50;99.90;;;;;;5066969;28;20037;-73
2023/08/06 07:54:42;;;;;;;7.10;5.47;;;16.50;99.90;;;;;;5073844;28;20041;-73
2023/08/06 07:57:08;;;;;;;6.85;5.30;;;16.50;99.90;;;;;;5066934;28;20374;-73
2023/08/06 07:59:34;;;;;;;6.10;4.93;;;16.40;99.90;;;;;;5068003;28;20036;-73
2023/08/06 08:02:00;;;;;;;7.47;5.55;;;16.40;99.90;;;;;;5059088;28;20138;-73
2023/08/06 08:04:25;;;;;;;6.50;5.70;;;16.50;99.90;;;;;;5057725;28;20048;-73
2023/08/06 08:06:51;;;;;;;7.45;5.30;;;16.50;99.90;;;;;;5060430;28;20043;-72
2023/08/06 08:09:18;;;;;;;7.10;6.05;;;16.50;99.90;;;;;;5065905;28;20087;-72
2023/08/06 08:11:43;;;;;;;8.48;6.43;;;16.60;99.90;;;;;;5060967;28;20050;-73
2023/08/06 08:14:09;;;;;;;8.18;5.68;;;16.60;99.90;;;;;;5068708;28;20032;-73
2023/08/06 08:16:35;;;;;;;6.40;5.63;;;16.70;99.90;;;;;;5063257;28;20381;-74
2023/08/06 08:19:01;;;;;;;7.28;5.60;;;16.70;99.90;;;;;;5067189;28;20029;-73
2023/08/06 08:21:26;;;;;;;6.97;5.63;;;16.80;99.90;;;;;;5067999;28;20041;-74
2023/08/06 08:23:52;;;;;;;7.38;5.88;;;16.80;99.90;;;;;;5066963;28;20029;-73
2023/08/06 08:26:18;;;;;;;8.18;5.72;;;16.90;99.90;;;;;;5065778;28;20041;-72
2023/08/06 08:28:43;;;;;;;7.45;5.53;;;16.90;99.90;;;;;;5066186;28;20043;-75
2023/08/06 08:31:11;;;;;;;8.27;5.45;;;17.00;99.90;;;;;;5065668;28;20111;-73
2023/08/06 08:33:37;;;;;;;6.60;5.00;;;17.00;99.90;;;;;;5056153;28;20041;-74
2023/08/06 08:36:03;;;;;;;6.20;5.40;;;17.10;99.90;;;;;;5063933;28;20429;-76
2023/08/06 08:38:29;;;;;;;6.78;5.47;;;17.20;99.90;;;;;;5066030;28;20123;-76
2023/08/06 08:40:55;;;;;;;6.40;5.13;;;17.30;99.90;;;;;;5064249;28;20115;-76
2023/08/06 08:43:22;;;;;;;7.40;5.60;;;17.50;99.90;;;;;;5064556;28;20052;-76
2023/08/06 08:45:50;;;;;;;6.10;5.50;;;17.60;99.90;;;;;;5062623;28;20054;-77
2023/08/06 08:48:19;;;;;;;8.68;5.57;;;17.80;99.90;;;;;;5051592;28;20524;-76
2023/08/06 08:50:46;;;;;;;7.63;4.95;;;17.80;99.90;;;;;;5057060;28;20426;-78
2023/08/06 08:53:13;;;;;;;6.30;5.38;;;17.80;99.90;;;;;;5072221;28;20093;-77
2023/08/06 08:55:40;;;;;;;6.38;5.32;;;17.80;99.90;;;;;;5064620;28;20516;-76
2023/08/06 08:58:06;;;;;;;6.00;4.68;;;17.80;99.90;;;;;;5061013;28;20041;-76
2023/08/06 09:00:32;;;;;;;6.07;5.00;;;17.90;99.90;;;;;;5056572;28;20052;-77
2023/08/06 09:02:59;;;;;;;8.93;5.45;;;18.00;99.90;;;;;;5064092;28;20040;-76
2023/08/06 09:05:28;;;;;;;6.95;5.05;;;18.00;99.90;;;;;;5052796;28;20478;-75
2023/08/06 09:07:56;;;;;;;5.90;4.45;;;18.10;99.90;;;;;;5059185;28;20175;-73
2023/08/06 09:10:24;;;;;;;6.70;5.25;;;18.10;99.90;;;;;;5062649;28;20051;-74
2023/08/06 09:12:53;;;;;;;5.30;4.53;;;18.00;99.90;;;;;;5064888;28;20048;-74
2023/08/06 09:15:20;;;;;;;7.53;5.00;;;18.10;99.90;;;;;;5054094;28;20044;-74
2023/08/06 09:17:46;;;;;;;5.35;4.60;;;18.10;99.90;;;;;;5063074;28;20041;-74
2023/08/06 09:20:15;;;;;;;5.95;4.80;;;18.20;99.90;;;;;;5055236;28;20048;-75
2023/08/06 09:22:41;;;;;;;5.53;4.63;;;18.10;99.90;;;;;;5063979;28;20056;-74
2023/08/06 09:25:11;;;;;;;5.28;4.55;;;18.10;99.90;;;;;;5045923;28;20080;-73
2023/08/06 09:27:37;;;;;;;5.70;4.88;;;18.10;99.90;;;;;;5054442;28;20124;-74
2023/08/06 09:30:04;;;;;;;5.93;4.63;;;18.20;99.90;;;;;;5060220;28;20041;-74
2023/08/06 09:32:50;;;;;;;5.07;4.43;;;18.30;99.90;;;;;;5051642;28;20075;-73
2023/08/06 09:35:17;;;;;;;5.32;4.55;;;18.40;99.90;;;;;;5053142;28;20041;-72
2023/08/06 09:37:43;;;;;;;5.20;4.70;;;18.50;99.90;;;;;;5070706;28;20056;-73
2023/08/06 09:40:29;;;;;;;6.10;5.00;;;18.50;99.90;;;;;;5061511;28;20056;-73
2023/08/06 09:42:55;;;;;;;6.05;4.75;;;18.40;99.90;;;;;;5050892;28;20049;-72
2023/08/06 09:45:23;;;;;;;5.63;4.65;;;18.40;99.90;;;;;;5051146;28;20060;-73
2023/08/06 09:47:50;;;;;;;5.60;4.15;;;18.50;99.90;;;;;;5058384;28;20063;-73
2023/08/06 09:50:20;;;;;;;5.65;4.63;;;18.60;99.90;;;;;;5053322;28;20615;-73
2023/08/06 09:52:50;;;;;;;5.95;4.90;;;18.70;99.90;;;;;;5055179;28;20490;-74
2023/08/06 09:55:16;;;;;;;5.05;4.30;;;18.80;99.90;;;;;;5051008;28;20048;-72
2023/08/06 09:57:42;;;;;;;5.93;4.03;;;18.90;99.90;;;;;;5053113;28;20047;-73
2023/08/06 10:00:10;;;;;;;5.68;3.95;;;19.00;99.90;;;;;;5050580;28;20055;-73
2023/08/06 10:02:40;;;;;;;4.35;3.45;;;19.10;99.90;;;;;;5054543;28;20049;-75
2023/08/06 10:05:07;;;;;;;5.50;4.25;;;19.20;99.90;;;;;;5054002;28;20556;-73
2023/08/06 10:07:34;;;;;;;4.78;3.60;;;19.30;99.90;;;;;;5051124;28;20045;-72
2023/08/06 10:10:00;;;;;;;4.80;3.90;;;19.40;99.90;;;;;;5060127;28;20413;-73
2023/08/06 10:12:29;;;;;;;4.07;3.50;;;19.50;99.90;;;;;;5056849;28;20057;-73
2023/08/06 10:14:59;;;;;;;4.00;3.28;;;19.50;99.90;;;;;;5052844;28;20094;-74
2023/08/06 10:17:26;;;;;;;5.35;3.70;;;19.60;99.90;;;;;;5062771;28;20202;-75
2023/08/06 10:19:55;;;;;;;4.63;3.28;;;19.60;99.90;;;;;;5066049;28;20061;-74
2023/08/06 10:22:21;;;;;;;5.55;3.90;;;19.70;99.90;;;;;;5065433;28;20497;-76
2023/08/06 10:24:54;;;;;;;4.88;3.63;;;19.80;99.90;;;;;;5060203;28;20079;-76
2023/08/06 10:27:22;;;;;;;4.50;3.60;;;19.90;99.90;;;;;;5060051;28;20440;-76
2023/08/06 10:29:50;;;;;;;4.70;3.80;;;20.00;99.90;;;;;;5054541;28;20418;-76
2023/08/06 10:32:18;;;;;;;4.93;3.42;;;20.10;99.90;;;;;;5057193;28;20044;-77
2023/08/06 10:34:57;;;;;;;4.35;3.00;;;20.20;99.90;;;;;;5081197;28;20120;-77
2023/08/06 10:37:34;;;;;;;4.45;3.42;;;20.20;99.90;;;;;;5069441;28;20040;-77
2023/08/06 10:39:59;;;;;;;4.40;3.40;;;20.40;99.90;;;;;;5064115;28;20128;-73
2023/08/06 10:42:29;;;;;;;3.63;3.00;;;20.50;99.90;;;;;;5054161;28;20057;-73
2023/08/06 10:45:18;;;;;;;5.03;3.53;;;20.60;99.90;;;;;;5070925;28;20041;-72
2023/08/06 10:47:45;;;;;;;3.85;3.00;;;20.80;99.90;;;;;;5059516;28;20059;-76
2023/08/06 10:50:18;;;;;;;3.63;3.05;;;21.00;99.90;;;;;;5065605;28;20067;-74
2023/08/06 10:52:45;;;;;;;4.18;3.20;;;21.20;99.90;;;;;;5060398;28;20048;-75
2023/08/06 10:55:11;;;;;;;3.90;2.92;;;21.50;99.90;;;;;;5056046;28;20071;-76
2023/08/06 10:57:37;;;;;;;3.30;2.88;;;21.50;99.90;;;;;;5052922;28;20044;-75
2023/08/06 11:00:08;;;;;;;3.70;3.00;;;21.70;99.90;;;;;;5069549;28;20426;-76
2023/08/06 11:02:37;;;;;;;3.83;2.72;;;21.90;99.90;;;;;;5054941;28;20398;-76
2023/08/06 11:05:07;;;;;;;3.90;3.00;;;22.00;99.90;;;;;;5053670;28;20079;-76
2023/08/06 11:07:36;;;;;;;4.22;2.60;;;22.30;99.90;;;;;;5078055;28;20127;-75
2023/08/06 11:10:07;;;;;;;2.90;2.35;;;22.50;99.90;;;;;;5072750;28;20098;-73
2023/08/06 11:12:34;;;;;;;2.92;1.95;;;22.50;99.90;;;;;;5073655;28;20057;-74
2023/08/06 11:15:00;;;;;;;3.17;2.30;;;22.20;99.90;;;;;;5074066;28;20083;-73
2023/08/06 11:17:30;;;;;;;3.30;1.95;;;22.20;99.90;;;;;;5074254;28;20045;-75
2023/08/06 11:19:58;;;;;;;3.15;2.10;;;22.30;99.90;;;;;;5074410;28;20088;-75
2023/08/06 11:22:24;;;;;;;2.45;1.70;;;22.20;99.90;;;;;;5073228;28;20048;-75
2023/08/06 11:24:50;;;;;;;3.15;2.30;;;21.90;99.90;;;;;;5074151;28;20049;-75
2023/08/06 11:27:17;;;;;;;2.90;2.30;;;21.70;99.90;;;;;;5072907;28;20052;-74
2023/08/06 11:29:44;;;;;;;3.05;1.90;;;21.40;99.90;;;;;;5074531;28;20187;-75
2023/08/06 11:32:10;;;;;;;3.33;2.40;;;21.10;99.90;;;;;;5073590;28;20056;-75
2023/08/06 11:34:37;;;;;;;4.05;2.38;;;21.00;99.90;;;;;;5073791;28;20044;-76
2023/08/06 11:37:06;;;;;;;2.70;2.15;;;20.90;99.90;;;;;;5072780;28;20440;-74
2023/08/06 11:39:35;;;;;;;2.97;2.03;;;20.70;99.90;;;;;;5074197;28;20044;-74
2023/08/06 11:42:04;;;;;;;2.50;1.77;;;20.70;99.90;;;;;;5073555;28;20090;-74
2023/08/06 11:44:35;;;;;;;2.72;1.60;;;20.60;99.90;;;;;;5072915;28;20052;-74
2023/08/06 11:47:04;;;;;;;2.50;1.70;;;20.50;99.90;;;;;;5072550;28;20052;-75
2023/08/06 11:49:47;;;;;;;2.50;1.85;;;20.40;99.90;;;;;;5072394;28;20079;-74
2023/08/06 11:52:26;;;;;;;2.40;1.52;;;20.40;99.90;;;;;;5072095;28;20321;-73
2023/08/06 11:55:07;;;;;;;2.03;1.40;;;20.40;99.90;;;;;;5073665;28;20048;-70
2023/08/06 11:57:42;;;;;;;2.10;1.38;;;20.30;99.90;;;;;;5073007;28;20497;-72
2023/08/06 12:00:13;;;;;;;2.10;1.30;;;20.30;99.90;;;;;;5072078;28;20048;-75
2023/08/06 12:02:45;;;;;;;1.90;1.40;;;20.30;99.90;;;;;;5073598;28;20087;-74
2023/08/06 12:05:20;;;;;;;3.13;1.33;;;20.30;99.90;;;;;;5073358;28;20047;-75
2023/08/06 12:07:48;;;;;;;2.60;1.50;;;20.40;99.90;;;;;;5072429;28;20049;-74
2023/08/06 12:10:14;;;;;;;2.80;1.30;;;20.50;99.90;;;;;;5072280;28;20412;-74
2023/08/06 12:12:40;;;;;;;2.40;1.30;;;20.50;99.90;;;;;;5072188;28;20090;-73
2023/08/06 12:15:07;;;;;;;2.20;1.10;;;20.50;99.90;;;;;;5071658;28;20087;-74
2023/08/06 12:17:33;;;;;;;2.15;1.20;;;20.50;99.90;;;;;;5071824;28;20048;-74
2023/08/06 12:19:59;;;;;;;2.00;1.20;;;20.60;99.90;;;;;;5055608;28;20052;-76
2023/08/06 12:22:25;;;;;;;2.42;1.45;;;20.60;99.90;;;;;;5073072;28;20051;-74
2023/08/06 12:24:51;;;;;;;2.33;1.42;;;20.70;99.90;;;;;;5072240;28;20055;-76
2023/08/06 12:27:17;;;;;;;1.85;1.10;;;20.80;99.90;;;;;;5071431;28;20044;-74
2023/08/06 12:29:45;;;;;;;1.95;1.00;;;20.90;99.90;;;;;;5073033;28;20132;-74
2023/08/06 12:32:12;;;;;;;2.20;1.40;;;20.90;99.90;;;;;;5072452;28;20044;-75
2023/08/06 12:34:39;;;;;;;2.40;1.33;;;20.80;99.90;;;;;;5071868;28;20118;-74
2023/08/06 12:37:06;;;;;;;2.70;1.40;;;20.80;99.90;;;;;;5070763;28;20550;-75
2023/08/06 12:39:32;;;;;;;2.88;1.35;;;20.70;99.90;;;;;;5072168;28;20482;-74
2023/08/06 12:42:02;;;;;;;2.40;1.30;;;20.70;99.90;;;;;;5071946;28;20063;-75
2023/08/06 12:44:27;;;;;;;2.10;1.20;;;20.60;99.90;;;;;;5077619;28;20486;-75